Time;durP1;ratioP1;P1;durP2;ratioP2;P2;SDS_P1;SDS_P2;PMS_P1;PMS_P2;Temp;Humidity;BMP_temperature;BMP_pressure;BME280_temperature;BME280_humidity;BME280_pressure;Samples;Min_cycle;Max_cycle;Signal;HPM_P1;HPM_P2
2022/07/05 00:00:13;;;;;;;3.28;3.03;;;;;;;21.47;54.70;94576.53;2616796;47;20165;-82
2022/07/05 00:02:42;;;;;;;2.55;2.35;;;;;;;21.75;55.79;94605.03;2616831;54;20187;-82
2022/07/05 00:05:11;;;;;;;4.07;2.58;;;;;;;21.32;59.13;94564.44;2617477;39;20534;-79
2022/07/05 00:07:39;;;;;;;2.55;2.35;;;;;;;21.40;56.68;94610.47;2616938;54;20169;-80
2022/07/05 00:10:10;;;;;;;2.42;2.30;;;;;;;21.32;58.99;94569.50;2616773;47;20172;-82
2022/07/05 00:12:38;;;;;;;1.95;1.85;;;;;;;21.75;56.00;94549.56;2617441;47;20149;-81
2022/07/05 00:15:11;;;;;;;3.17;2.88;;;;;;;21.63;56.03;94593.66;2617430;47;20272;-80
2022/07/05 00:17:40;;;;;;;2.70;2.50;;;;;;;20.94;57.49;94562.63;2617903;39;20607;-80
2022/07/05 00:20:10;;;;;;;2.83;2.63;;;;;;;20.93;57.79;94592.84;2617175;47;20160;-80
2022/07/05 00:22:39;;;;;;;2.78;2.50;;;;;;;20.42;57.87;94581.72;2617210;46;20179;-80
2022/07/05 00:25:08;;;;;;;2.40;2.30;;;;;;;20.69;60.90;94570.03;2617203;54;20153;-81
2022/07/05 00:27:38;;;;;;;2.75;2.55;;;;;;;21.79;59.26;94610.78;2616135;54;20175;-81
2022/07/05 00:30:11;;;;;;;2.47;2.38;;;;;;;22.12;57.34;94585.19;2617045;47;20240;-79
2022/07/05 00:32:41;;;;;;;2.33;2.03;;;;;;;21.88;55.50;94606.34;2617449;39;20560;-80
2022/07/05 00:35:11;;;;;;;2.38;2.25;;;;;;;21.67;56.92;94561.19;2616746;47;20157;-81
2022/07/05 00:37:40;;;;;;;1.58;1.52;;;;;;;22.08;56.83;94536.19;2616354;54;20144;-81
2022/07/05 00:40:10;;;;;;;2.20;2.10;;;;;;;22.97;54.90;94607.06;2617366;47;20149;-81
2022/07/05 00:42:39;;;;;;;1.55;1.52;;;;;;;22.31;54.18;94487.53;2617314;54;20181;-81
2022/07/05 00:45:12;;;;;;;2.20;2.10;;;;;;;23.19;52.47;94613.94;2617306;47;20154;-81
2022/07/05 00:47:44;;;;;;;2.17;2.08;;;;;;;23.15;51.71;94611.81;2618390;47;20165;-81
2022/07/05 00:50:13;;;;;;;2.20;2.10;;;;;;;22.96;52.00;94576.72;2617854;54;20153;-80
2022/07/05 00:52:42;;;;;;;1.88;1.77;;;;;;;23.12;53.53;94590.19;2617060;54;20153;-80
2022/07/05 00:55:11;;;;;;;3.42;2.20;;;;;;;23.27;53.81;94602.94;2617038;54;20190;-81
2022/07/05 00:57:40;;;;;;;2.00;1.90;;;;;;;23.30;54.33;94601.47;2617159;54;20168;-81
2022/07/05 01:00:13;;;;;;;2.67;2.13;;;;;;;23.10;54.37;94567.13;2618137;54;20137;-79
2022/07/05 01:02:42;;;;;;;2.50;2.30;;;;;;;23.40;53.96;94604.16;2618298;54;20161;-80
2022/07/05 01:05:11;;;;;;;1.90;1.80;;;;;;;22.98;51.26;94562.25;2617470;47;20260;-81
2022/07/05 01:07:40;;;;;;;2.42;2.30;;;;;;;22.88;52.27;94550.19;2618047;54;20178;-81
2022/07/05 01:10:09;;;;;;;2.08;1.98;;;;;;;23.20;52.63;94604.53;2617906;54;20172;-81
2022/07/05 01:12:40;;;;;;;2.00;1.90;;;;;;;22.63;51.68;94567.16;2617897;47;20208;-81
2022/07/05 01:15:13;;;;;;;4.45;2.00;;;;;;;23.00;54.52;94610.63;2618172;47;20184;-81
2022/07/05 01:17:42;;;;;;;2.42;2.33;;;;;;;22.86;49.90;94600.00;2617991;47;20712;-81
2022/07/05 01:20:11;;;;;;;1.65;1.55;;;;;;;22.77;52.63;94581.41;2618206;46;20203;-81
2022/07/05 01:23:01;;;;;;;2.15;2.05;;;;;;;22.65;53.06;94573.63;2618397;46;20188;-82
2022/07/05 01:25:32;;;;;;;1.98;1.88;;;;;;;22.96;54.59;94622.94;2618586;47;20164;-80
2022/07/05 01:28:02;;;;;;;1.80;1.70;;;;;;;23.00;54.26;94613.50;2617909;47;20153;-81
2022/07/05 01:30:31;;;;;;;1.95;1.85;;;;;;;22.91;53.26;94586.94;2618079;47;20160;-81
2022/07/05 01:33:00;;;;;;;2.30;2.20;;;;;;;22.85;49.94;94606.53;2617621;54;20286;-81
2022/07/05 01:35:28;;;;;;;4.45;1.77;;;;;;;22.82;53.74;94593.59;2618200;47;20157;-81
2022/07/05 01:38:00;;;;;;;1.80;1.70;;;;;;;22.82;54.10;94590.72;2617422;54;20152;-82
2022/07/05 01:40:29;;;;;;;2.78;2.33;;;;;;;23.09;51.96;94626.38;2617973;47;20164;-82
2022/07/05 01:42:58;;;;;;;1.85;1.75;;;;;;;22.95;50.59;94612.16;2618582;31;20557;-80
2022/07/05 01:45:42;;;;;;;4.68;2.20;;;;;;;22.54;49.71;94617.81;2618127;54;20199;-80
2022/07/05 01:48:13;;;;;;;2.33;2.20;;;;;;;21.95;51.37;94587.53;2617932;54;20163;-81
2022/07/05 01:50:47;;;;;;;3.67;1.98;;;;;;;22.04;52.71;94611.22;2617874;54;20277;-82
2022/07/05 01:53:21;;;;;;;2.78;2.38;;;;;;;21.29;52.76;94537.13;2617720;47;20164;-79
2022/07/05 01:55:50;;;;;;;3.58;1.70;;;;;;;21.35;51.88;94620.59;2617896;54;20179;-79
2022/07/05 01:58:19;;;;;;;5.03;2.42;;;;;;;20.28;53.75;94560.94;2617644;54;20703;-81
2022/07/05 02:00:49;;;;;;;2.30;2.10;;;;;;;20.16;56.59;94578.97;2618000;47;20156;-80
2022/07/05 02:03:19;;;;;;;3.40;1.90;;;;;;;19.99;55.88;94603.50;2617874;54;20152;-80
2022/07/05 02:05:49;;;;;;;1.65;1.55;;;;;;;19.31;57.49;94596.50;2617978;47;20165;-81
2022/07/05 02:08:22;;;;;;;2.13;2.03;;;;;;;19.39;58.23;94614.44;2617872;54;20201;-83
2022/07/05 02:10:51;;;;;;;4.47;1.70;;;;;;;18.83;59.63;94563.56;2617947;54;20184;-81
2022/07/05 02:13:20;;;;;;;2.40;2.30;;;;;;;18.66;61.37;94567.88;2618079;47;20168;-82
2022/07/05 02:15:49;;;;;;;1.83;1.60;;;;;;;19.28;59.70;94609.41;2617765;54;20156;-82
2022/07/05 02:18:18;;;;;;;2.63;2.50;;;;;;;19.37;58.77;94625.94;2618328;39;20588;-80
2022/07/05 02:20:46;;;;;;;3.17;1.98;;;;;;;19.43;56.78;94605.09;2617493;47;20208;-80
2022/07/05 02:23:15;;;;;;;2.10;2.00;;;;;;;19.57;58.82;94602.22;2617916;54;20149;-80
2022/07/05 02:25:46;;;;;;;1.50;1.50;;;;;;;19.60;58.95;94583.53;2617598;47;20164;-80
2022/07/05 02:28:20;;;;;;;2.00;1.90;;;;;;;20.83;61.46;94619.56;2617785;46;20187;-82
2022/07/05 02:30:49;;;;;;;2.20;2.00;;;;;;;20.83;58.94;94610.22;2617331;47;20259;-81
2022/07/05 02:33:18;;;;;;;3.38;1.60;;;;;;;20.72;56.33;94585.84;2617542;54;20236;-82
2022/07/05 02:35:47;;;;;;;6.47;1.77;;;;;;;21.04;54.83;94605.75;2617988;47;20168;-81
2022/07/05 02:38:15;;;;;;;1.92;1.65;;;;;;;21.01;54.18;94615.84;2618211;39;20532;-82
2022/07/05 02:40:47;;;;;;;4.32;1.63;;;;;;;20.71;56.55;94605.28;2617949;39;20575;-82
2022/07/05 02:43:16;;;;;;;1.88;1.77;;;;;;;21.14;54.74;94610.69;2618084;47;20723;-82
2022/07/05 02:45:44;;;;;;;1.98;1.88;;;;;;;20.66;55.67;94634.78;2617485;54;20160;-82
2022/07/05 02:48:13;;;;;;;2.00;1.90;;;;;;;20.27;56.71;94648.66;2617762;47;20184;-82
2022/07/05 02:50:42;;;;;;;3.05;1.95;;;;;;;19.50;58.30;94597.94;2618167;54;20695;-80
2022/07/05 02:53:11;;;;;;;2.75;1.80;;;;;;;19.26;58.66;94586.47;2618098;54;20156;-79
2022/07/05 02:55:40;;;;;;;3.28;1.92;;;;;;;19.15;59.76;94643.88;2618165;54;20145;-80
2022/07/05 02:58:11;;;;;;;2.08;1.92;;;;;;;18.78;61.56;94636.72;2618011;54;20167;-80
2022/07/05 03:00:40;;;;;;;2.33;2.23;;;;;;;19.16;60.09;94630.97;2617289;47;20176;-79
2022/07/05 03:03:09;;;;;;;4.63;2.07;;;;;;;19.64;60.10;94646.00;2617474;54;20153;-81
2022/07/05 03:05:37;;;;;;;1.73;1.63;;;;;;;20.07;60.99;94614.97;2617016;54;20168;-81
2022/07/05 03:08:06;;;;;;;1.98;1.83;;;;;;;20.62;57.51;94603.91;2617615;54;20160;-80
2022/07/05 03:10:36;;;;;;;2.38;1.73;;;;;;;20.82;56.46;94628.94;2617118;47;20173;-80
2022/07/05 03:13:06;;;;;;;1.88;1.77;;;;;;;20.86;56.10;94637.53;2617294;54;20161;-80
2022/07/05 03:15:37;;;;;;;3.10;2.28;;;;;;;20.19;56.76;94600.53;2617107;54;20177;-80
2022/07/05 03:18:06;;;;;;;1.80;1.70;;;;;;;19.22;59.01;94612.31;2617232;47;20256;-82
2022/07/05 03:20:35;;;;;;;2.03;1.93;;;;;;;18.81;61.22;94646.78;2616709;54;20164;-82
2022/07/05 03:23:04;;;;;;;2.20;2.10;;;;;;;18.42;62.61;94654.56;2617050;47;20173;-80
2022/07/05 03:25:32;;;;;;;2.00;1.90;;;;;;;18.80;61.89;94639.59;2616786;47;20272;-79
2022/07/05 03:28:01;;;;;;;1.97;1.87;;;;;;;18.64;61.52;94599.41;2617050;54;20153;-80
2022/07/05 03:30:30;;;;;;;2.83;2.37;;;;;;;19.37;61.58;94637.44;2617000;54;20148;-79
2022/07/05 03:33:01;;;;;;;2.17;2.07;;;;;;;19.81;63.50;94604.31;2617195;54;20173;-81
2022/07/05 03:35:30;;;;;;;1.50;1.40;;;;;;;20.43;59.60;94640.69;2616767;54;20168;-81
2022/07/05 03:37:59;;;;;;;2.25;2.15;;;;;;;20.71;57.54;94634.03;2616895;54;20137;-82
2022/07/05 03:40:28;;;;;;;1.80;1.70;;;;;;;20.95;59.23;94627.38;2617135;39;20222;-82
2022/07/05 03:42:57;;;;;;;2.28;2.17;;;;;;;21.12;56.15;94633.75;2616643;47;20160;-80
2022/07/05 03:45:26;;;;;;;2.35;2.17;;;;;;;21.42;59.13;94635.66;2616960;54;20281;-80
2022/07/05 03:48:03;;;;;;;2.13;2.03;;;;;;;21.09;56.50;94623.69;2616754;54;20308;-80
2022/07/05 03:50:31;;;;;;;2.03;1.83;;;;;;;20.44;57.01;94564.47;2616641;47;20172;-80
2022/07/05 03:53:00;;;;;;;2.45;2.35;;;;;;;20.85;57.19;94621.72;2616858;47;20153;-82
2022/07/05 03:55:29;;;;;;;1.88;1.77;;;;;;;21.21;58.68;94581.13;2616801;47;20141;-81
2022/07/05 03:57:58;;;;;;;1.58;1.48;;;;;;;21.85;57.67;94616.47;2617293;47;20200;-81
2022/07/05 04:00:26;;;;;;;3.03;2.83;;;;;;;21.90;56.57;94582.53;2616275;54;20236;-82
2022/07/05 04:02:55;;;;;;;1.67;1.58;;;;;;;22.41;55.51;94605.72;2616666;54;20276;-82
2022/07/05 04:05:26;;;;;;;2.28;1.88;;;;;;;22.63;54.66;94616.22;2616631;54;20228;-82
2022/07/05 04:07:57;;;;;;;2.17;1.95;;;;;;;22.80;54.43;94634.06;2616868;54;20656;-81
2022/07/05 04:10:26;;;;;;;2.00;1.90;;;;;;;22.97;54.30;94624.38;2616227;54;20164;-79
2022/07/05 04:12:55;;;;;;;2.13;2.03;;;;;;;22.80;53.82;94590.75;2617000;39;20547;-80
2022/07/05 04:15:24;;;;;;;2.05;1.88;;;;;;;23.12;53.61;94627.03;2616891;54;20169;-81
2022/07/05 04:17:55;;;;;;;1.98;1.85;;;;;;;22.65;51.42;94559.19;2617329;39;20577;-81
2022/07/05 04:20:27;;;;;;;3.15;2.03;;;;;;;23.20;53.39;94641.38;2617014;39;20583;-81
2022/07/05 04:22:58;;;;;;;2.10;1.95;;;;;;;23.17;52.43;94613.97;2618636;47;20156;-80
2022/07/05 04:25:26;;;;;;;4.82;1.98;;;;;;;22.86;48.94;94628.88;2617556;54;20153;-80
2022/07/05 04:27:57;;;;;;;1.90;1.55;;;;;;;22.65;53.72;94587.31;2617711;54;20685;-81
2022/07/05 04:30:28;;;;;;;2.05;1.90;;;;;;;23.02;52.41;94625.03;2617441;54;20180;-82
2022/07/05 04:32:57;;;;;;;2.25;2.15;;;;;;;22.90;52.17;94625.94;2617486;54;20188;-81
2022/07/05 04:35:29;;;;;;;1.95;1.85;;;;;;;22.81;51.02;94606.59;2617458;47;20165;-82
2022/07/05 04:37:57;;;;;;;3.00;2.00;;;;;;;22.94;52.07;94625.19;2617292;54;20164;-80
2022/07/05 04:40:26;;;;;;;2.88;2.58;;;;;;;22.93;49.05;94610.03;2617343;47;20171;-80
2022/07/05 04:42:55;;;;;;;1.90;1.80;;;;;;;22.66;51.05;94559.88;2617551;54;20152;-80
2022/07/05 04:45:24;;;;;;;2.00;1.88;;;;;;;23.13;52.40;94594.53;2617633;47;20168;-82
2022/07/05 04:47:52;;;;;;;2.38;2.17;;;;;;;23.24;47.45;94630.44;2617499;54;20152;-82
2022/07/05 04:50:21;;;;;;;1.80;1.70;;;;;;;23.13;52.42;94594.53;2617526;47;20161;-82
2022/07/05 04:52:53;;;;;;;2.03;1.92;;;;;;;23.48;51.34;94620.66;2617363;54;20157;-82
2022/07/05 04:55:22;;;;;;;2.58;2.38;;;;;;;23.68;49.12;94634.78;2618037;54;20149;-81
2022/07/05 04:57:51;;;;;;;2.28;1.75;;;;;;;22.98;48.30;94619.31;2617563;39;22294;-81
2022/07/05 05:00:19;;;;;;;2.65;2.45;;;;;;;22.80;48.90;94591.47;2617379;47;20172;-80
2022/07/05 05:02:48;;;;;;;3.92;2.17;;;;;;;22.90;48.66;94584.81;2617370;54;20172;-81
2022/07/05 05:05:17;;;;;;;3.00;2.33;;;;;;;23.32;48.98;94636.09;2617065;54;20160;-80
2022/07/05 05:07:46;;;;;;;5.18;3.10;;;;;;;22.76;49.62;94603.06;2617675;54;20160;-80
2022/07/05 05:10:18;;;;;;;3.08;2.10;;;;;;;22.56;49.10;94588.88;2617111;54;20153;-90
2022/07/05 05:15:23;;;;;;;3.28;2.67;;;;;;;22.40;47.34;94493.91;2613385;54;20508;-84
2022/07/05 05:17:54;;;;;;;2.10;2.00;;;;;;;23.37;49.33;94599.19;2617687;47;20168;-84
2022/07/05 05:20:23;;;;;;;2.85;2.13;;;;;;;23.81;49.08;94600.53;2617148;54;20195;-82
2022/07/05 05:22:56;;;;;;;2.03;1.85;;;;;;;23.38;45.80;94525.44;2617367;47;20170;-83
2022/07/05 05:25:30;;;;;;;1.85;1.75;;;;;;;23.45;42.83;94547.00;2618117;54;20156;-86
2022/07/05 05:28:02;;;;;;;3.08;2.20;;;;;;;23.86;44.06;94546.94;2621889;47;20411;-83
2022/07/05 05:30:30;;;;;;;1.77;1.67;;;;;;;24.50;43.66;94607.84;2617192;47;20153;-82
2022/07/05 05:32:59;;;;;;;5.75;1.92;;;;;;;24.00;46.76;94511.94;2616454;47;20160;-83
2022/07/05 05:35:28;;;;;;;3.05;2.40;;;;;;;24.93;46.18;94639.47;2617764;54;20187;-82
2022/07/05 05:37:58;;;;;;;2.50;2.30;;;;;;;24.94;43.82;94640.19;2616940;54;20197;-83
2022/07/05 05:40:30;;;;;;;1.85;1.75;;;;;;;24.74;43.11;94607.28;2617528;54;20151;-83
2022/07/05 05:42:59;;;;;;;2.38;1.70;;;;;;;24.33;45.78;94543.06;2617338;47;20149;-83
2022/07/05 05:45:28;;;;;;;1.85;1.55;;;;;;;24.95;43.85;94618.44;2617510;47;20168;-83
2022/07/05 05:47:59;;;;;;;1.67;1.58;;;;;;;24.85;41.71;94622.28;2617598;54;20149;-84
2022/07/05 05:50:29;;;;;;;1.48;1.38;;;;;;;24.99;43.92;94606.78;2617716;47;20157;-83
2022/07/05 05:52:59;;;;;;;1.58;1.48;;;;;;;25.09;40.61;94635.50;2617880;54;20160;-82
2022/07/05 05:55:32;;;;;;;3.58;2.28;;;;;;;25.30;41.61;94627.72;2617757;47;20676;-81
2022/07/05 05:58:13;;;;;;;2.05;1.95;;;;;;;25.37;42.02;94629.00;2618018;47;20195;-81
2022/07/05 06:00:42;;;;;;;4.30;1.92;;;;;;;25.24;40.85;94616.28;2617711;54;20263;-81
2022/07/05 06:03:17;;;;;;;2.15;2.05;;;;;;;25.52;43.95;94628.66;2615961;47;20179;-86
2022/07/05 06:05:54;;;;;;;1.25;1.25;;;;;;;24.16;40.82;94403.84;2617867;54;20156;-86
2022/07/05 06:08:23;;;;;;;1.73;1.63;;;;;;;25.17;39.73;94533.84;2622713;54;20145;-86
2022/07/05 06:10:54;;;;;;;2.45;2.25;;;;;;;25.44;40.25;94609.97;2621645;54;20745;-87
2022/07/05 06:13:23;;;;;;;2.25;2.10;;;;;;;24.84;41.50;94504.25;2617841;47;20696;-85
2022/07/05 06:15:52;;;;;;;3.05;2.45;;;;;;;24.91;40.06;94500.44;2616078;47;20176;-83
2022/07/05 06:18:22;;;;;;;2.63;2.42;;;;;;;24.50;42.46;94430.53;2616520;54;20172;-84
2022/07/05 06:20:51;;;;;;;2.38;2.17;;;;;;;25.57;38.79;94525.56;2617492;47;20152;-84
2022/07/05 06:23:19;;;;;;;3.90;2.15;;;;;;;26.72;40.99;94652.94;2617609;54;20184;-87
2022/07/05 06:25:48;;;;;;;2.00;1.90;;;;;;;24.86;39.23;94420.94;2618402;47;20191;-87
2022/07/05 06:28:26;;;;;;;2.05;1.95;;;;;;;25.78;40.20;94509.06;2618235;47;20184;-87
2022/07/05 06:30:55;;;;;;;1.95;1.85;;;;;;;25.91;39.78;94532.63;2618392;47;20164;-86
2022/07/05 06:33:24;;;;;;;2.22;1.67;;;;;;;26.92;38.80;94656.72;2617938;47;20168;-85
2022/07/05 06:35:52;;;;;;;2.30;2.10;;;;;;;26.82;38.76;94643.19;2617742;54;20156;-86
2022/07/05 06:38:21;;;;;;;2.15;2.05;;;;;;;26.01;39.87;94517.81;2618079;47;20182;-83
2022/07/05 06:40:50;;;;;;;2.50;2.25;;;;;;;25.79;37.37;94511.19;2617136;47;20471;-83
2022/07/05 06:43:22;;;;;;;2.10;2.00;;;;;;;27.30;39.01;94649.72;2616875;47;20153;-83
2022/07/05 06:45:51;;;;;;;1.92;1.83;;;;;;;26.65;39.00;94523.19;2616894;47;20161;-84
2022/07/05 06:48:24;;;;;;;2.35;2.15;;;;;;;25.65;37.31;94418.78;2616836;47;20165;-84
2022/07/05 06:51:02;;;;;;;3.67;1.77;;;;;;;26.38;37.33;94523.25;2617552;47;20171;-84
2022/07/05 06:53:30;;;;;;;1.98;1.88;;;;;;;26.74;37.50;94527.94;2616982;47;20195;-84
2022/07/05 06:55:59;;;;;;;3.33;2.33;;;;;;;26.81;40.10;94615.63;2617229;47;20699;-83
2022/07/05 06:58:31;;;;;;;5.15;2.90;;;;;;;26.85;39.82;94525.41;2616935;47;20153;-83
2022/07/05 07:01:01;;;;;;;1.92;1.83;;;;;;;26.94;39.02;94511.34;2617152;54;20161;-83
2022/07/05 07:03:29;;;;;;;6.68;2.47;;;;;;;26.42;39.07;94453.47;2616850;54;21062;-84
2022/07/05 07:05:58;;;;;;;2.33;2.17;;;;;;;26.76;38.26;94457.44;2617116;47;20169;-83
2022/07/05 07:11:08;;;;;;;2.08;1.98;;;;;;;26.55;39.59;94455.19;2617099;47;20141;-84
2022/07/05 07:13:44;;;;;;;2.50;2.30;;;;;;;26.81;38.32;94508.13;2616929;47;20160;-85
2022/07/05 07:16:19;;;;;;;2.28;2.17;;;;;;;27.14;38.17;94513.59;2617400;39;20644;-84
2022/07/05 07:18:48;;;;;;;2.78;2.00;;;;;;;26.26;38.98;94492.38;2617650;39;20546;-87
2022/07/05 07:21:17;;;;;;;2.55;2.35;;;;;;;27.14;38.53;94639.31;2618457;47;20696;-88
2022/07/05 07:23:46;;;;;;;3.35;2.30;;;;;;;26.07;38.64;94512.56;2616996;54;20184;-88
2022/07/05 07:26:15;;;;;;;2.92;2.72;;;;;;;26.55;39.76;94542.31;2617755;47;20153;-87
2022/07/05 07:28:47;;;;;;;2.00;1.90;;;;;;;26.99;37.61;94541.72;2617909;47;20192;-84
2022/07/05 07:31:16;;;;;;;2.25;2.15;;;;;;;27.02;37.82;94476.22;2617245;39;20559;-84
2022/07/05 07:33:45;;;;;;;2.55;2.35;;;;;;;28.66;37.35;94645.03;2617521;39;20595;-84
2022/07/05 07:36:14;;;;;;;2.38;2.28;;;;;;;27.42;37.25;94524.25;2616954;47;20699;-85
2022/07/05 07:38:43;;;;;;;3.17;2.55;;;;;;;27.41;37.67;94586.81;2617505;54;20732;-88
2022/07/05 07:41:12;;;;;;;2.17;2.08;;;;;;;26.97;37.39;94429.13;2619096;54;20186;-88
2022/07/05 07:43:41;;;;;;;5.15;2.17;;;;;;;28.32;35.37;94561.81;2621994;54;20257;-84
2022/07/05 07:46:16;;;;;;;2.58;2.38;;;;;;;29.42;34.87;94649.38;2617290;39;20553;-84
2022/07/05 07:48:45;;;;;;;2.63;2.50;;;;;;;28.64;35.92;94607.22;2616782;47;20152;-84
2022/07/05 07:51:13;;;;;;;2.83;2.63;;;;;;;27.59;37.36;94536.06;2616612;54;20157;-84
2022/07/05 07:53:42;;;;;;;2.60;2.40;;;;;;;28.00;36.87;94537.53;2617880;54;20145;-85
2022/07/05 07:56:11;;;;;;;2.00;1.90;;;;;;;27.95;35.35;94452.53;2618243;39;20529;-85
2022/07/05 07:58:40;;;;;;;2.50;2.30;;;;;;;28.10;34.84;94450.50;2616931;47;20153;-84
2022/07/05 08:01:13;;;;;;;2.70;2.50;;;;;;;28.24;35.18;94435.44;2617111;47;20168;-85
2022/07/05 08:03:43;;;;;;;3.70;2.42;;;;;;;28.22;35.54;94470.44;2616926;54;20199;-84
2022/07/05 08:06:13;;;;;;;2.33;2.22;;;;;;;28.23;37.00;94541.03;2617158;47;20240;-84
2022/07/05 08:08:44;;;;;;;2.50;2.03;;;;;;;28.65;36.14;94527.03;2617141;46;20280;-84
2022/07/05 08:11:15;;;;;;;2.70;2.22;;;;;;;28.86;35.51;94541.53;2617222;54;20280;-83
2022/07/05 08:13:44;;;;;;;5.47;2.50;;;;;;;29.55;33.84;94545.25;2617304;47;20179;-88
2022/07/05 08:16:16;;;;;;;2.72;2.53;;;;;;;29.04;34.95;94502.19;2618836;54;20152;-88
2022/07/05 08:21:37;;;;;;;2.33;2.17;;;;;;;29.57;33.94;94536.41;2617105;47;20148;-83
2022/07/05 08:24:08;;;;;;;4.13;2.17;;;;;;;29.15;34.91;94532.34;2616948;46;20164;-83
2022/07/05 08:26:38;;;;;;;2.03;1.92;;;;;;;29.70;33.61;94528.53;2617732;54;20167;-83
2022/07/05 08:29:08;;;;;;;2.55;2.40;;;;;;;30.00;33.16;94564.47;2613992;47;20215;-85
2022/07/05 08:31:41;;;;;;;2.45;2.28;;;;;;;29.52;34.01;94532.25;2616701;47;20163;-84
2022/07/05 08:34:13;;;;;;;2.35;2.17;;;;;;;29.39;33.62;94434.38;2615432;47;20177;-85
2022/07/05 08:36:43;;;;;;;2.80;2.60;;;;;;;30.19;33.25;94575.38;2610071;47;20184;-85
2022/07/05 08:39:12;;;;;;;2.38;2.22;;;;;;;29.37;33.88;94454.88;2615491;47;20742;-87
2022/07/05 08:41:44;;;;;;;4.55;2.70;;;;;;;30.42;33.08;94602.06;2616515;47;20184;-86
2022/07/05 08:47:14;;;;;;;3.80;2.55;;;;;;;30.88;33.49;94608.00;2620565;47;20173;-89
2022/07/05 08:49:43;;;;;;;3.03;2.80;;;;;;;31.05;32.61;94611.56;2615737;47;20311;-83
2022/07/05 08:52:14;;;;;;;5.20;4.00;;;;;;;30.51;32.95;94538.81;2614773;47;20156;-84
2022/07/05 08:54:45;;;;;;;2.97;2.33;;;;;;;29.75;31.63;94397.03;2610748;54;20153;-82
2022/07/05 08:57:15;;;;;;;5.55;2.70;;;;;;;30.86;32.64;94602.25;2616216;47;20177;-84
2022/07/05 08:59:44;;;;;;;2.47;2.38;;;;;;;30.20;32.33;94512.53;2620409;46;20240;-83
2022/07/05 09:02:19;;;;;;;1.92;1.83;;;;;;;30.67;32.71;94587.06;2616544;47;20172;-85
2022/07/05 09:04:48;;;;;;;2.83;2.20;;;;;;;30.84;32.84;94595.78;2615289;39;20292;-82
2022/07/05 09:07:22;;;;;;;2.58;2.30;;;;;;;30.55;32.64;94538.66;2615380;54;20164;-87
2022/07/05 09:09:51;;;;;;;2.08;1.98;;;;;;;31.00;33.05;94584.03;2613988;47;20156;-83
2022/07/05 09:12:20;;;;;;;2.88;2.67;;;;;;;30.28;33.74;94591.00;2616548;47;20169;-87
2022/07/05 09:14:50;;;;;;;3.42;3.22;;;;;;;29.82;33.94;94596.66;2615741;47;20173;-86
2022/07/05 09:17:21;;;;;;;2.17;2.08;;;;;;;29.56;33.84;94473.72;2616164;47;20167;-85
2022/07/05 09:20:20;;;;;;;3.95;2.50;;;;;;;29.27;33.25;94366.28;2617146;47;20323;-85
2022/07/05 09:22:52;;;;;;;2.33;2.15;;;;;;;30.82;32.28;94493.53;2616759;47;20176;-84
2022/07/05 09:25:23;;;;;;;3.45;2.70;;;;;;;31.03;31.04;94471.25;2617371;47;20495;-83
2022/07/05 09:27:58;;;;;;;6.47;2.05;;;;;;;32.11;30.42;94553.63;2616335;47;20254;-84
2022/07/05 09:30:32;;;;;;;2.40;2.30;;;;;;;30.53;30.88;94345.84;2626818;47;20167;-91
2022/07/05 09:33:12;;;;;;;2.10;2.00;;;;;;;32.25;30.11;94534.63;2620620;47;20171;-84
2022/07/05 09:35:44;;;;;;;3.90;2.63;;;;;;;31.66;30.34;94455.69;2629815;39;20673;-89
2022/07/05 09:38:23;;;;;;;3.28;2.47;;;;;;;32.34;30.07;94526.78;2624476;54;20181;-84
2022/07/05 09:40:54;;;;;;;2.22;2.13;;;;;;;31.70;31.45;94555.03;2622252;47;20248;-88
2022/07/05 09:43:24;;;;;;;2.72;2.63;;;;;;;30.90;31.39;94446.34;2618070;47;20187;-85
2022/07/05 09:45:55;;;;;;;2.65;2.45;;;;;;;30.26;32.01;94463.28;2618031;47;20172;-85
2022/07/05 09:48:27;;;;;;;2.60;2.45;;;;;;;30.12;32.71;94410.66;2619184;47;20157;-85
2022/07/05 09:51:07;;;;;;;3.00;2.80;;;;;;;30.59;32.43;94453.00;2617615;47;20165;-84
2022/07/05 09:53:48;;;;;;;2.70;2.50;;;;;;;31.46;31.26;94510.09;2620181;46;20207;-87
2022/07/05 09:56:17;;;;;;;2.40;2.20;;;;;;;31.15;30.60;94434.19;2624644;47;20702;-86
2022/07/05 09:58:46;;;;;;;3.28;2.55;;;;;;;30.79;31.49;94329.19;2619985;47;20156;-88
2022/07/05 10:01:28;;;;;;;2.80;2.60;;;;;;;30.83;31.79;94472.28;2625844;54;20157;-88
2022/07/05 10:04:17;;;;;;;3.65;3.35;;;;;;;30.09;32.65;94423.94;2620921;39;20578;-87
2022/07/05 10:19:50;;;;;;;2.75;2.55;;;;;;;31.79;31.83;94413.25;2621732;54;20239;-91
2022/07/05 10:39:25;;;;;;;4.53;3.10;;;;;;;29.97;33.45;94328.84;2614998;39;20657;-89
2022/07/05 10:42:28;;;;;;;3.15;2.95;;;;;;;31.46;32.42;94498.41;2623658;47;20157;-88
2022/07/05 10:52:35;;;;;;;2.65;2.50;;;;;;;29.78;34.38;94337.75;2614871;39;20262;-90
2022/07/05 10:55:49;;;;;;;2.75;2.60;;;;;;;30.04;34.37;94374.50;2624210;47;20153;-88
2022/07/05 11:15:14;;;;;;;2.00;1.90;;;;;;;30.24;32.96;94273.50;2611797;39;22334;31
2022/07/05 11:20:31;;;;;;;2.80;2.65;;;;;;;31.61;32.39;94472.03;2617284;54;20247;-85
2022/07/05 11:23:05;;;;;;;2.40;2.30;;;;;;;31.66;31.56;94455.69;2617864;47;20176;-84
2022/07/05 11:25:35;;;;;;;2.83;2.70;;;;;;;31.08;32.89;94411.06;2618967;54;20141;-86
2022/07/05 11:28:14;;;;;;;2.40;2.28;;;;;;;31.15;32.33;94463.44;2620207;47;20176;-86
2022/07/05 11:30:54;;;;;;;3.60;3.30;;;;;;;30.26;33.64;94311.38;2617011;54;20153;-88
2022/07/05 11:33:31;;;;;;;2.55;2.42;;;;;;;31.16;32.84;94351.47;2617183;54;20196;-84
2022/07/05 11:36:01;;;;;;;2.25;2.15;;;;;;;30.02;32.93;94239.56;2616024;47;20156;-89
2022/07/05 11:38:31;;;;;;;2.95;2.67;;;;;;;31.53;32.51;94464.38;2618876;54;20664;-88
2022/07/05 11:41:13;;;;;;;2.97;2.67;;;;;;;31.74;34.21;94444.25;2619226;54;20175;-83
2022/07/05 11:43:43;;;;;;;2.97;2.78;;;;;;;31.27;32.81;94456.97;2617618;47;20191;-86
2022/07/05 11:46:17;;;;;;;2.75;2.33;;;;;;;31.04;31.70;94405.41;2617841;54;20188;-84
2022/07/05 11:48:51;;;;;;;2.38;2.28;;;;;;;32.01;32.61;94440.63;2617166;47;20180;-83
2022/07/05 11:51:21;;;;;;;5.45;2.65;;;;;;;31.08;33.05;94395.72;2616471;47;20156;-84
2022/07/05 11:53:50;;;;;;;3.00;2.80;;;;;;;30.94;32.83;94349.66;2617505;47;20169;-84
2022/07/05 11:56:19;;;;;;;3.05;2.90;;;;;;;30.18;34.00;94297.16;2617536;46;20187;-86
2022/07/05 11:58:49;;;;;;;2.90;2.70;;;;;;;31.01;32.86;94409.25;2610680;47;20397;-83
2022/07/05 12:01:21;;;;;;;2.55;2.45;;;;;;;30.96;32.10;94367.81;2618584;47;20895;-86
2022/07/05 12:03:57;;;;;;;2.55;2.45;;;;;;;31.35;30.60;94324.88;2617229;54;20173;-87
2022/07/05 12:06:29;;;;;;;2.42;2.33;;;;;;;31.59;31.63;94326.47;2617968;54;20159;-88
2022/07/05 12:09:05;;;;;;;3.30;2.70;;;;;;;31.63;32.22;94343.81;2621167;47;20687;-86
2022/07/05 12:14:24;;;;;;;3.67;3.05;;;;;;;31.49;32.17;94417.75;2617123;39;20544;-85
2022/07/05 12:17:13;;;;;;;2.45;2.35;;;;;;;29.97;32.95;94168.97;2622900;39;20579;-89
2022/07/05 12:19:43;;;;;;;2.92;2.72;;;;;;;30.30;32.74;94199.47;2623176;47;20161;-89
2022/07/05 12:22:12;;;;;;;3.15;2.95;;;;;;;30.49;32.31;94272.25;2620107;47;20161;-86
2022/07/05 12:27:14;;;;;;;3.13;2.83;;;;;;;31.24;30.84;94280.09;2618315;39;20786;-86
2022/07/05 12:29:43;;;;;;;2.90;2.80;;;;;;;31.87;31.08;94305.97;2617382;47;20180;-86
2022/07/05 12:32:32;;;;;;;2.97;2.70;;;;;;;31.50;32.84;94304.31;2619872;54;20411;-88
2022/07/05 12:35:02;;;;;;;2.75;2.55;;;;;;;30.30;32.64;94232.31;2620203;54;20165;-88
2022/07/05 12:40:08;;;;;;;3.33;3.08;;;;;;;30.61;33.38;94295.06;2622173;54;20512;-87
2022/07/05 12:42:41;;;;;;;3.05;2.85;;;;;;;30.16;31.89;94189.22;2623596;47;20244;-90
2022/07/05 12:45:12;;;;;;;2.30;2.20;;;;;;;30.14;32.30;94206.81;2621342;54;20152;-85
2022/07/05 12:47:54;;;;;;;2.67;2.50;;;;;;;31.40;32.14;94385.28;2617453;46;20232;-87
2022/07/05 12:50:32;;;;;;;2.95;2.58;;;;;;;29.20;32.63;94125.31;2621203;54;20153;-86
2022/07/05 12:58:43;;;;;;;2.88;2.60;;;;;;;30.51;31.94;94208.59;2620452;39;20509;-86
2022/07/05 13:01:22;;;;;;;3.13;2.92;;;;;;;31.03;32.30;94260.69;2618108;47;20202;-84
2022/07/05 13:04:11;;;;;;;3.20;3.00;;;;;;;30.41;33.24;94252.94;2613907;54;20169;-86
2022/07/05 13:09:42;;;;;;;2.92;2.72;;;;;;;30.96;32.15;94253.75;2617203;47;20172;-87
2022/07/05 13:12:31;;;;;;;2.78;2.58;;;;;;;31.06;31.14;94258.34;2618522;39;20520;-90
2022/07/05 13:15:16;;;;;;;2.78;2.58;;;;;;;31.77;33.57;94301.38;2620108;54;20168;-84
2022/07/05 13:17:45;;;;;;;2.75;2.55;;;;;;;31.60;34.05;94292.06;2627766;46;20257;-90